sensor_id;sensor_type;location;lat;lon;timestamp;pressure;altitude;pressure_sealevel;temperature;humidity
25759;BME280;13604;52.496;13.456;2023-03-01T00:01:16;102756.72;;;-3.54;98.66
25759;BME280;13604;52.496;13.456;2023-03-01T00:03:42;102758.84;;;-3.44;97.74
25759;BME280;13604;52.496;13.456;2023-03-01T00:06:07;102764.13;;;-3.42;97.08
25759;BME280;13604;52.496;13.456;2023-03-01T00:08:34;102757.53;;;-3.47;96.73
25759;BME280;13604;52.496;13.456;2023-03-01T00:11:07;102744.56;;;-3.49;96.65
25759;BME280;13604;52.496;13.456;2023-03-01T00:13:35;102745.00;;;-3.46;96.44
25759;BME280;13604;52.496;13.456;2023-03-01T00:16:08;102747.13;;;-3.49;96.54
25759;BME280;13604;52.496;13.456;2023-03-01T00:18:34;102737.53;;;-3.57;95.98
25759;BME280;13604;52.496;13.456;2023-03-01T00:21:00;102732.44;;;-3.57;97.25
25759;BME280;13604;52.496;13.456;2023-03-01T00:23:25;102737.25;;;-3.40;100.00
25759;BME280;13604;52.496;13.456;2023-03-01T00:25:51;102736.25;;;-3.35;100.00
25759;BME280;13604;52.496;13.456;2023-03-01T00:28:17;102718.88;;;-2.66;100.00
25759;BME280;13604;52.496;13.456;2023-03-01T00:30:42;102731.59;;;-1.86;100.00
25759;BME280;13604;52.496;13.456;2023-03-01T00:33:08;102721.34;;;-2.13;100.00
25759;BME280;13604;52.496;13.456;2023-03-01T00:35:33;102733.72;;;-2.36;100.00
25759;BME280;13604;52.496;13.456;2023-03-01T00:37:59;102736.06;;;-2.58;100.00
25759;BME280;13604;52.496;13.456;2023-03-01T00:40:25;102734.19;;;-2.79;100.00
25759;BME280;13604;52.496;13.456;2023-03-01T00:42:51;102719.69;;;-3.06;100.00
25759;BME280;13604;52.496;13.456;2023-03-01T00:45:16;102725.78;;;-3.11;100.00
25759;BME280;13604;52.496;13.456;2023-03-01T00:47:42;102725.72;;;-3.18;100.00
25759;BME280;13604;52.496;13.456;2023-03-01T00:50:08;102704.34;;;-3.39;100.00
25759;BME280;13604;52.496;13.456;2023-03-01T00:52:33;102732.03;;;-3.35;100.00
25759;BME280;13604;52.496;13.456;2023-03-01T00:54:58;102731.03;;;-3.42;100.00
25759;BME280;13604;52.496;13.456;2023-03-01T00:57:24;102729.28;;;-3.49;100.00
25759;BME280;13604;52.496;13.456;2023-03-01T00:59:49;102734.19;;;-3.51;100.00
25759;BME280;13604;52.496;13.456;2023-03-01T01:02:14;102720.88;;;-3.55;100.00
25759;BME280;13604;52.496;13.456;2023-03-01T01:04:40;102712.59;;;-3.60;100.00
25759;BME280;13604;52.496;13.456;2023-03-01T01:07:05;102716.38;;;-3.63;100.00
25759;BME280;13604;52.496;13.456;2023-03-01T01:09:30;102713.22;;;-3.68;100.00
25759;BME280;13604;52.496;13.456;2023-03-01T01:11:56;102717.00;;;-3.72;100.00
25759;BME280;13604;52.496;13.456;2023-03-01T01:14:21;102713.81;;;-3.76;100.00
25759;BME280;13604;52.496;13.456;2023-03-01T01:16:46;102691.59;;;-3.90;100.00
25759;BME280;13604;52.496;13.456;2023-03-01T01:19:12;102706.47;;;-3.80;100.00
25759;BME280;13604;52.496;13.456;2023-03-01T01:21:38;102689.78;;;-3.91;100.00
25759;BME280;13604;52.496;13.456;2023-03-01T01:24:04;102677.53;;;-3.94;100.00
25759;BME280;13604;52.496;13.456;2023-03-01T01:26:33;102704.44;;;-3.83;100.00
25759;BME280;13604;52.496;13.456;2023-03-01T01:29:00;102681.94;;;-3.93;100.00
25759;BME280;13604;52.496;13.456;2023-03-01T01:31:26;102694.69;;;-3.80;100.00
25759;BME280;13604;52.496;13.456;2023-03-01T01:33:53;102682.44;;;-3.82;100.00
25759;BME280;13604;52.496;13.456;2023-03-01T01:36:19;102636.81;;;-4.07;100.00
25759;BME280;13604;52.496;13.456;2023-03-01T01:38:44;102678.56;;;-3.86;100.00
25759;BME280;13604;52.496;13.456;2023-03-01T01:41:11;102654.94;;;-3.98;100.00
25759;BME280;13604;52.496;13.456;2023-03-01T01:43:42;102678.38;;;-3.88;100.00
25759;BME280;13604;52.496;13.456;2023-03-01T01:46:28;102654.63;;;-4.07;100.00
25759;BME280;13604;52.496;13.456;2023-03-01T01:49:04;102655.97;;;-4.03;100.00
25759;BME280;13604;52.496;13.456;2023-03-01T01:51:39;102679.06;;;-3.89;100.00
25759;BME280;13604;52.496;13.456;2023-03-01T01:54:11;102681.41;;;-3.90;100.00
25759;BME280;13604;52.496;13.456;2023-03-01T01:56:39;102685.38;;;-3.92;100.00
25759;BME280;13604;52.496;13.456;2023-03-01T01:59:05;102685.78;;;-4.02;100.00
25759;BME280;13604;52.496;13.456;2023-03-01T02:01:31;102687.88;;;-4.18;100.00
25759;BME280;13604;52.496;13.456;2023-03-01T02:03:57;102671.66;;;-4.31;100.00
25759;BME280;13604;52.496;13.456;2023-03-01T02:06:54;102692.38;;;-4.22;100.00
25759;BME280;13604;52.496;13.456;2023-03-01T02:09:23;102669.59;;;-4.47;100.00
25759;BME280;13604;52.496;13.456;2023-03-01T02:11:48;102691.44;;;-4.36;100.00
25759;BME280;13604;52.496;13.456;2023-03-01T02:14:15;102690.91;;;-4.33;100.00
25759;BME280;13604;52.496;13.456;2023-03-01T02:16:41;102696.31;;;-4.25;100.00
25759;BME280;13604;52.496;13.456;2023-03-01T02:19:08;102693.06;;;-4.23;100.00
25759;BME280;13604;52.496;13.456;2023-03-01T02:22:05;102656.47;;;-4.50;100.00
25759;BME280;13604;52.496;13.456;2023-03-01T02:24:39;102685.13;;;-4.32;100.00
25759;BME280;13604;52.496;13.456;2023-03-01T02:27:09;102692.16;;;-4.24;100.00
25759;BME280;13604;52.496;13.456;2023-03-01T02:29:35;102666.47;;;-4.38;100.00
25759;BME280;13604;52.496;13.456;2023-03-01T02:32:02;102696.00;;;-4.33;100.00
25759;BME280;13604;52.496;13.456;2023-03-01T02:34:31;102681.94;;;-4.37;100.00
25759;BME280;13604;52.496;13.456;2023-03-01T02:37:02;102695.41;;;-4.25;100.00
25759;BME280;13604;52.496;13.456;2023-03-01T02:39:46;102699.06;;;-4.23;100.00
25759;BME280;13604;52.496;13.456;2023-03-01T02:42:16;102690.63;;;-4.29;100.00
25759;BME280;13604;52.496;13.456;2023-03-01T02:44:44;102697.25;;;-4.24;100.00
25759;BME280;13604;52.496;13.456;2023-03-01T02:47:10;102691.00;;;-4.39;100.00
25759;BME280;13604;52.496;13.456;2023-03-01T02:49:36;102684.88;;;-4.47;100.00
25759;BME280;13604;52.496;13.456;2023-03-01T02:52:26;102668.91;;;-4.46;100.00
25759;BME280;13604;52.496;13.456;2023-03-01T02:55:02;102684.50;;;-4.37;100.00
25759;BME280;13604;52.496;13.456;2023-03-01T02:57:29;102683.03;;;-4.48;100.00
25759;BME280;13604;52.496;13.456;2023-03-01T02:59:57;102682.53;;;-4.45;100.00
25759;BME280;13604;52.496;13.456;2023-03-01T03:02:27;102669.41;;;-4.48;100.00
25759;BME280;13604;52.496;13.456;2023-03-01T03:05:09;102672.31;;;-4.58;100.00
25759;BME280;13604;52.496;13.456;2023-03-01T03:07:41;102667.22;;;-4.58;100.00
25759;BME280;13604;52.496;13.456;2023-03-01T03:10:13;102682.81;;;-4.49;100.00
25759;BME280;13604;52.496;13.456;2023-03-01T03:12:39;102661.25;;;-4.58;100.00
25759;BME280;13604;52.496;13.456;2023-03-01T03:15:06;102644.44;;;-4.64;100.00
25759;BME280;13604;52.496;13.456;2023-03-01T03:17:36;102670.09;;;-4.49;100.00
25759;BME280;13604;52.496;13.456;2023-03-01T03:20:03;102676.41;;;-4.53;100.00
25759;BME280;13604;52.496;13.456;2023-03-01T03:22:29;102657.16;;;-4.64;100.00
25759;BME280;13604;52.496;13.456;2023-03-01T03:24:55;102662.44;;;-4.62;100.00
25759;BME280;13604;52.496;13.456;2023-03-01T03:27:20;102671.19;;;-4.60;100.00
25759;BME280;13604;52.496;13.456;2023-03-01T03:29:45;102669.06;;;-4.57;100.00
25759;BME280;13604;52.496;13.456;2023-03-01T03:32:10;102659.91;;;-4.62;100.00
25759;BME280;13604;52.496;13.456;2023-03-01T03:34:36;102646.03;;;-4.77;100.00
25759;BME280;13604;52.496;13.456;2023-03-01T03:37:01;102661.47;;;-4.75;100.00
25759;BME280;13604;52.496;13.456;2023-03-01T03:39:26;102659.72;;;-4.82;100.00
25759;BME280;13604;52.496;13.456;2023-03-01T03:41:53;102636.81;;;-4.95;100.00
25759;BME280;13604;52.496;13.456;2023-03-01T03:44:18;102655.97;;;-4.97;100.00
25759;BME280;13604;52.496;13.456;2023-03-01T03:46:44;102651.63;;;-4.98;100.00
25759;BME280;13604;52.496;13.456;2023-03-01T03:49:09;102628.25;;;-5.14;100.00
25759;BME280;13604;52.496;13.456;2023-03-01T03:51:34;102642.69;;;-5.02;100.00
25759;BME280;13604;52.496;13.456;2023-03-01T03:54:00;102637.50;;;-4.96;100.00
25759;BME280;13604;52.496;13.456;2023-03-01T03:56:25;102634.66;;;-4.92;100.00
25759;BME280;13604;52.496;13.456;2023-03-01T03:58:51;102632.31;;;-4.90;100.00
25759;BME280;13604;52.496;13.456;2023-03-01T04:01:16;102603.94;;;-5.06;100.00
25759;BME280;13604;52.496;13.456;2023-03-01T04:03:41;102622.53;;;-5.00;100.00
25759;BME280;13604;52.496;13.456;2023-03-01T04:06:11;102621.41;;;-5.02;100.00
25759;BME280;13604;52.496;13.456;2023-03-01T04:08:36;102636.59;;;-4.96;100.00
25759;BME280;13604;52.496;13.456;2023-03-01T04:11:04;102634.53;;;-4.99;100.00
25759;BME280;13604;52.496;13.456;2023-03-01T04:13:50;102637.50;;;-4.96;100.00
25759;BME280;13604;52.496;13.456;2023-03-01T04:16:16;102614.16;;;-5.12;100.00
25759;BME280;13604;52.496;13.456;2023-03-01T04:18:42;102642.69;;;-5.02;100.00
25759;BME280;13604;52.496;13.456;2023-03-01T04:21:08;102643.84;;;-5.05;100.00
25759;BME280;13604;52.496;13.456;2023-03-01T04:23:33;102644.16;;;-5.09;100.00
25759;BME280;13604;52.496;13.456;2023-03-01T04:25:59;102642.81;;;-5.13;100.00
25759;BME280;13604;52.496;13.456;2023-03-01T04:28:30;102638.56;;;-5.07;100.00
25759;BME280;13604;52.496;13.456;2023-03-01T04:30:57;102634.91;;;-5.09;100.00
25759;BME280;13604;52.496;13.456;2023-03-01T04:33:24;102629.13;;;-5.08;100.00
25759;BME280;13604;52.496;13.456;2023-03-01T04:35:50;102605.28;;;-5.21;100.00
25759;BME280;13604;52.496;13.456;2023-03-01T04:38:17;102626.84;;;-5.12;100.00
25759;BME280;13604;52.496;13.456;2023-03-01T04:40:42;102613.13;;;-5.20;100.00
25759;BME280;13604;52.496;13.456;2023-03-01T04:43:09;102636.09;;;-5.12;100.00
25759;BME280;13604;52.496;13.456;2023-03-01T04:45:34;102607.19;;;-5.26;100.00
25759;BME280;13604;52.496;13.456;2023-03-01T04:48:00;102628.25;;;-5.14;100.00
25759;BME280;13604;52.496;13.456;2023-03-01T04:50:25;102628.06;;;-5.15;100.00
25759;BME280;13604;52.496;13.456;2023-03-01T04:52:51;102613.91;;;-5.26;100.00
25759;BME280;13604;52.496;13.456;2023-03-01T04:55:16;102625.59;;;-5.21;100.00
25759;BME280;13604;52.496;13.456;2023-03-01T04:57:41;102631.16;;;-5.24;100.00
25759;BME280;13604;52.496;13.456;2023-03-01T05:00:11;102621.00;;;-5.24;100.00
25759;BME280;13604;52.496;13.456;2023-03-01T05:02:57;102624.97;;;-5.26;100.00
25759;BME280;13604;52.496;13.456;2023-03-01T05:05:32;102604.09;;;-5.36;100.00
25759;BME280;13604;52.496;13.456;2023-03-01T05:08:03;102605.22;;;-5.34;100.00
25759;BME280;13604;52.496;13.456;2023-03-01T05:10:31;102614.59;;;-5.27;100.00
25759;BME280;13604;52.496;13.456;2023-03-01T05:12:58;102601.94;;;-5.33;100.00
25759;BME280;13604;52.496;13.456;2023-03-01T05:15:27;102593.69;;;-5.56;100.00
25759;BME280;13604;52.496;13.456;2023-03-01T05:17:54;102623.88;;;-5.33;100.00
25759;BME280;13604;52.496;13.456;2023-03-01T05:20:21;102623.41;;;-5.31;100.00
25759;BME280;13604;52.496;13.456;2023-03-01T05:22:50;102589.69;;;-5.48;100.00
25759;BME280;13604;52.496;13.456;2023-03-01T05:25:16;102624.75;;;-5.27;100.00
25759;BME280;13604;52.496;13.456;2023-03-01T05:27:42;102596.03;;;-5.39;100.00
25759;BME280;13604;52.496;13.456;2023-03-01T05:30:09;102599.00;;;-5.36;100.00
25759;BME280;13604;52.496;13.456;2023-03-01T05:32:47;102614.50;;;-5.22;100.00
25759;BME280;13604;52.496;13.456;2023-03-01T05:35:15;102619.38;;;-5.23;100.00
25759;BME280;13604;52.496;13.456;2023-03-01T05:37:42;102600.13;;;-5.34;100.00
25759;BME280;13604;52.496;13.456;2023-03-01T05:40:15;102613.69;;;-5.28;100.00
25759;BME280;13604;52.496;13.456;2023-03-01T05:42:42;102610.41;;;-5.27;100.00
25759;BME280;13604;52.496;13.456;2023-03-01T05:45:09;102612.25;;;-5.26;100.00
25759;BME280;13604;52.496;13.456;2023-03-01T05:47:38;102562.44;;;-5.49;100.00
25759;BME280;13604;52.496;13.456;2023-03-01T05:50:12;102590.44;;;-5.37;100.00
25759;BME280;13604;52.496;13.456;2023-03-01T05:52:37;102601.47;;;-5.30;100.00
25759;BME280;13604;52.496;13.456;2023-03-01T05:55:03;102605.25;;;-5.40;100.00
25759;BME280;13604;52.496;13.456;2023-03-01T05:57:29;102614.47;;;-5.34;100.00
25759;BME280;13604;52.496;13.456;2023-03-01T05:59:54;102606.97;;;-5.27;100.00
25759;BME280;13604;52.496;13.456;2023-03-01T06:02:19;102599.91;;;-5.36;100.00
25759;BME280;13604;52.496;13.456;2023-03-01T06:04:44;102619.25;;;-5.30;100.00
25759;BME280;13604;52.496;13.456;2023-03-01T06:07:10;102619.25;;;-5.30;100.00
25759;BME280;13604;52.496;13.456;2023-03-01T06:09:35;102599.41;;;-5.51;100.00
25759;BME280;13604;52.496;13.456;2023-03-01T06:12:00;102614.63;;;-5.33;100.00
25759;BME280;13604;52.496;13.456;2023-03-01T06:14:26;102607.59;;;-5.23;100.00
25759;BME280;13604;52.496;13.456;2023-03-01T06:16:51;102617.63;;;-5.11;100.00
25759;BME280;13604;52.496;13.456;2023-03-01T06:19:16;102624.31;;;-5.12;100.00
25759;BME280;13604;52.496;13.456;2023-03-01T06:21:41;102601.22;;;-5.13;100.00
25759;BME280;13604;52.496;13.456;2023-03-01T06:24:07;102595.44;;;-5.12;100.00
25759;BME280;13604;52.496;13.456;2023-03-01T06:26:33;102617.06;;;-4.90;100.00
25759;BME280;13604;52.496;13.456;2023-03-01T06:28:58;102611.19;;;-4.84;100.00
25759;BME280;13604;52.496;13.456;2023-03-01T06:31:23;102618.19;;;-4.70;100.00
25759;BME280;13604;52.496;13.456;2023-03-01T06:33:49;102608.97;;;-4.56;100.00
25759;BME280;13604;52.496;13.456;2023-03-01T06:36:14;102616.44;;;-4.32;100.00
25759;BME280;13604;52.496;13.456;2023-03-01T06:38:40;102624.06;;;-4.07;100.00
25759;BME280;13604;52.496;13.456;2023-03-01T06:41:06;102615.13;;;-3.84;100.00
25759;BME280;13604;52.496;13.456;2023-03-01T06:43:31;102627.13;;;-3.58;100.00
25759;BME280;13604;52.496;13.456;2023-03-01T06:45:57;102630.59;;;-3.24;100.00
25759;BME280;13604;52.496;13.456;2023-03-01T06:48:22;102627.38;;;-3.03;100.00
25759;BME280;13604;52.496;13.456;2023-03-01T06:50:47;102603.78;;;-2.95;100.00
25759;BME280;13604;52.496;13.456;2023-03-01T06:53:13;102635.75;;;-2.71;100.00
25759;BME280;13604;52.496;13.456;2023-03-01T06:55:38;102628.34;;;-2.35;100.00
25759;BME280;13604;52.496;13.456;2023-03-01T06:58:03;102625.84;;;-1.81;100.00
25759;BME280;13604;52.496;13.456;2023-03-01T07:00:29;102624.19;;;-1.39;100.00
25759;BME280;13604;52.496;13.456;2023-03-01T07:02:58;102626.34;;;-0.93;98.44
25759;BME280;13604;52.496;13.456;2023-03-01T07:05:23;102617.59;;;-0.38;95.71
25759;BME280;13604;52.496;13.456;2023-03-01T07:07:49;102623.97;;;0.54;88.68
25759;BME280;13604;52.496;13.456;2023-03-01T07:10:14;102607.47;;;1.20;84.30
25759;BME280;13604;52.496;13.456;2023-03-01T07:12:39;102605.72;;;1.81;80.71
25759;BME280;13604;52.496;13.456;2023-03-01T07:15:08;102629.88;;;2.54;76.83
25759;BME280;13604;52.496;13.456;2023-03-01T07:17:34;102607.75;;;2.88;73.40
25759;BME280;13604;52.496;13.456;2023-03-01T07:19:59;102634.59;;;3.48;71.35
25759;BME280;13604;52.496;13.456;2023-03-01T07:22:25;102623.41;;;3.56;70.58
25759;BME280;13604;52.496;13.456;2023-03-01T07:24:50;102626.75;;;3.97;67.64
25759;BME280;13604;52.496;13.456;2023-03-01T07:27:15;102627.28;;;4.37;66.27
25759;BME280;13604;52.496;13.456;2023-03-01T07:29:41;102619.56;;;4.54;64.71
25759;BME280;13604;52.496;13.456;2023-03-01T07:32:06;102617.72;;;4.88;62.87
25759;BME280;13604;52.496;13.456;2023-03-01T07:34:31;102630.75;;;5.16;61.92
25759;BME280;13604;52.496;13.456;2023-03-01T07:36:57;102595.47;;;5.25;60.52
25759;BME280;13604;52.496;13.456;2023-03-01T07:39:22;102616.06;;;5.51;59.73
25759;BME280;13604;52.496;13.456;2023-03-01T07:41:50;102626.72;;;5.46;60.08
25759;BME280;13604;52.496;13.456;2023-03-01T07:44:16;102612.75;;;5.44;60.58
25759;BME280;13604;52.496;13.456;2023-03-01T07:46:42;102625.91;;;5.64;59.59
25759;BME280;13604;52.496;13.456;2023-03-01T07:49:09;102631.00;;;5.37;59.84
25759;BME280;13604;52.496;13.456;2023-03-01T07:51:35;102624.22;;;5.11;59.93
25759;BME280;13604;52.496;13.456;2023-03-01T07:54:00;102616.44;;;5.28;59.64
25759;BME280;13604;52.496;13.456;2023-03-01T07:56:25;102615.44;;;5.54;58.94
25759;BME280;13604;52.496;13.456;2023-03-01T07:58:51;102594.75;;;5.63;57.52
25759;BME280;13604;52.496;13.456;2023-03-01T08:01:19;102624.94;;;6.09;56.57
25759;BME280;13604;52.496;13.456;2023-03-01T08:03:45;102621.75;;;6.31;55.85
25759;BME280;13604;52.496;13.456;2023-03-01T08:06:11;102594.84;;;6.48;55.54
25759;BME280;13604;52.496;13.456;2023-03-01T08:08:37;102611.03;;;6.93;53.85
25759;BME280;13604;52.496;13.456;2023-03-01T08:11:04;102620.00;;;7.26;53.14
25759;BME280;13604;52.496;13.456;2023-03-01T08:13:30;102613.84;;;7.45;52.13
25759;BME280;13604;52.496;13.456;2023-03-01T08:16:01;102617.84;;;7.41;51.17
25759;BME280;13604;52.496;13.456;2023-03-01T08:18:27;102611.94;;;7.23;50.38
25759;BME280;13604;52.496;13.456;2023-03-01T08:20:52;102590.00;;;7.09;50.79
25759;BME280;13604;52.496;13.456;2023-03-01T08:23:17;102609.81;;;7.09;49.99
25759;BME280;13604;52.496;13.456;2023-03-01T08:25:42;102576.25;;;7.10;49.91
25759;BME280;13604;52.496;13.456;2023-03-01T08:28:08;102597.81;;;7.69;48.27
25759;BME280;13604;52.496;13.456;2023-03-01T08:30:33;102593.34;;;8.49;47.52
25759;BME280;13604;52.496;13.456;2023-03-01T08:32:59;102569.91;;;9.34;46.98
25759;BME280;13604;52.496;13.456;2023-03-01T08:35:24;102594.19;;;10.47;44.62
25759;BME280;13604;52.496;13.456;2023-03-01T08:37:49;102581.59;;;11.49;42.65
25759;BME280;13604;52.496;13.456;2023-03-01T08:40:15;102581.75;;;12.40;39.40
25759;BME280;13604;52.496;13.456;2023-03-01T08:42:41;102587.28;;;13.11;38.86
25759;BME280;13604;52.496;13.456;2023-03-01T08:45:09;102584.81;;;13.54;36.69
25759;BME280;13604;52.496;13.456;2023-03-01T08:47:35;102520.41;;;13.43;34.70
25759;BME280;13604;52.496;13.456;2023-03-01T08:50:00;102583.41;;;13.74;35.38
25759;BME280;13604;52.496;13.456;2023-03-01T08:52:25;102574.44;;;13.99;34.88
25759;BME280;13604;52.496;13.456;2023-03-01T08:54:51;102570.22;;;14.46;33.87
25759;BME280;13604;52.496;13.456;2023-03-01T08:57:17;102589.59;;;15.09;32.42
25759;BME280;13604;52.496;13.456;2023-03-01T08:59:42;102573.19;;;15.61;30.37
25759;BME280;13604;52.496;13.456;2023-03-01T09:02:16;102578.47;;;16.28;29.40
25759;BME280;13604;52.496;13.456;2023-03-01T09:04:42;102570.75;;;17.03;29.32
25759;BME280;13604;52.496;13.456;2023-03-01T09:07:08;102565.88;;;17.88;29.40
25759;BME280;13604;52.496;13.456;2023-03-01T09:09:34;102574.59;;;18.06;28.18
25759;BME280;13604;52.496;13.456;2023-03-01T09:12:00;102566.28;;;18.60;27.60
25759;BME280;13604;52.496;13.456;2023-03-01T09:14:25;102564.63;;;17.60;27.92
25759;BME280;13604;52.496;13.456;2023-03-01T09:16:50;102563.28;;;18.72;26.63
25759;BME280;13604;52.496;13.456;2023-03-01T09:19:16;102555.41;;;19.64;25.99
25759;BME280;13604;52.496;13.456;2023-03-01T09:21:41;102553.63;;;19.87;24.70
25759;BME280;13604;52.496;13.456;2023-03-01T09:24:18;102538.28;;;20.55;25.46
25759;BME280;13604;52.496;13.456;2023-03-01T09:26:44;102572.81;;;21.43;24.00
25759;BME280;13604;52.496;13.456;2023-03-01T09:29:12;102560.78;;;21.85;22.97
25759;BME280;13604;52.496;13.456;2023-03-01T09:31:37;102559.72;;;21.78;22.87
25759;BME280;13604;52.496;13.456;2023-03-01T09:34:03;102564.84;;;21.42;22.75
25759;BME280;13604;52.496;13.456;2023-03-01T09:36:28;102559.47;;;21.40;22.68
25759;BME280;13604;52.496;13.456;2023-03-01T09:38:53;102566.41;;;19.52;25.37
25759;BME280;13604;52.496;13.456;2023-03-01T09:41:33;102536.59;;;20.57;23.87
25759;BME280;13604;52.496;13.456;2023-03-01T09:44:27;102564.38;;;21.55;23.66
25759;BME280;13604;52.496;13.456;2023-03-01T09:46:55;102554.75;;;21.92;23.04
25759;BME280;13604;52.496;13.456;2023-03-01T09:49:25;102566.16;;;22.56;22.05
25759;BME280;13604;52.496;13.456;2023-03-01T09:51:57;102560.09;;;22.26;20.25
25759;BME280;13604;52.496;13.456;2023-03-01T09:54:24;102552.97;;;22.24;20.08
25759;BME280;13604;52.496;13.456;2023-03-01T09:57:18;102548.25;;;22.84;20.35
25759;BME280;13604;52.496;13.456;2023-03-01T10:05:38;102548.22;;;24.63;19.24
25759;BME280;13604;52.496;13.456;2023-03-01T10:08:26;102551.13;;;24.78;18.69
25759;BME280;13604;52.496;13.456;2023-03-01T10:10:54;102551.88;;;25.32;18.37
25759;BME280;13604;52.496;13.456;2023-03-01T10:13:25;102558.88;;;25.25;18.21
25759;BME280;13604;52.496;13.456;2023-03-01T10:15:57;102558.44;;;25.60;17.84
25759;BME280;13604;52.496;13.456;2023-03-01T10:18:29;102563.50;;;26.14;17.57
25759;BME280;13604;52.496;13.456;2023-03-01T10:21:07;102554.84;;;26.45;17.22
25759;BME280;13604;52.496;13.456;2023-03-01T10:23:37;102563.19;;;26.90;16.87
25759;BME280;13604;52.496;13.456;2023-03-01T10:26:13;102539.72;;;26.49;16.98
25759;BME280;13604;52.496;13.456;2023-03-01T10:28:49;102545.00;;;26.41;17.01
25759;BME280;13604;52.496;13.456;2023-03-01T10:31:22;102552.56;;;26.98;16.28
25759;BME280;13604;52.496;13.456;2023-03-01T10:33:52;102537.38;;;26.94;16.70
25759;BME280;13604;52.496;13.456;2023-03-01T10:36:20;102530.38;;;27.25;16.90
25759;BME280;13604;52.496;13.456;2023-03-01T10:38:54;102544.81;;;27.66;16.19
25759;BME280;13604;52.496;13.456;2023-03-01T10:41:22;102539.56;;;28.43;16.04
25759;BME280;13604;52.496;13.456;2023-03-01T10:43:55;102535.97;;;28.50;15.70
25759;BME280;13604;52.496;13.456;2023-03-01T10:46:32;102523.47;;;28.63;15.37
25759;BME280;13604;52.496;13.456;2023-03-01T10:51:31;102519.41;;;29.77;14.60
25759;BME280;13604;52.496;13.456;2023-03-01T10:53:57;102523.84;;;29.88;14.49
25759;BME280;13604;52.496;13.456;2023-03-01T10:56:22;102524.53;;;30.17;14.20
25759;BME280;13604;52.496;13.456;2023-03-01T10:58:59;102526.81;;;30.60;14.10
25759;BME280;13604;52.496;13.456;2023-03-01T11:01:27;102525.88;;;30.64;14.32
25759;BME280;13604;52.496;13.456;2023-03-01T11:06:31;102510.09;;;30.27;13.91
25759;BME280;13604;52.496;13.456;2023-03-01T11:09:17;102511.47;;;30.71;13.25
25759;BME280;13604;52.496;13.456;2023-03-01T11:11:42;102507.44;;;31.11;13.62
25759;BME280;13604;52.496;13.456;2023-03-01T11:14:20;102498.25;;;31.27;13.38
25759;BME280;13604;52.496;13.456;2023-03-01T11:16:48;102501.22;;;31.06;13.00
25759;BME280;13604;52.496;13.456;2023-03-01T11:19:22;102496.56;;;30.38;13.08
25759;BME280;13604;52.496;13.456;2023-03-01T11:22:01;102491.88;;;30.61;13.81
25759;BME280;13604;52.496;13.456;2023-03-01T11:24:41;102479.25;;;30.67;13.71
25759;BME280;13604;52.496;13.456;2023-03-01T11:27:21;102495.88;;;31.03;13.10
25759;BME280;13604;52.496;13.456;2023-03-01T11:29:55;102452.72;;;31.10;12.95
25759;BME280;13604;52.496;13.456;2023-03-01T11:32:25;102484.19;;;32.23;12.48
25759;BME280;13604;52.496;13.456;2023-03-01T11:34:56;102479.91;;;32.60;12.13
25759;BME280;13604;52.496;13.456;2023-03-01T11:37:35;102477.47;;;32.46;11.77
25759;BME280;13604;52.496;13.456;2023-03-01T11:40:10;102467.78;;;32.82;11.78
25759;BME280;13604;52.496;13.456;2023-03-01T11:42:45;102467.75;;;32.84;11.77
25759;BME280;13604;52.496;13.456;2023-03-01T11:45:11;102476.69;;;32.86;11.40
25759;BME280;13604;52.496;13.456;2023-03-01T11:50:38;102477.34;;;32.02;11.98
25759;BME280;13604;52.496;13.456;2023-03-01T11:56:01;102475.97;;;32.31;12.53
25759;BME280;13604;52.496;13.456;2023-03-01T11:58:38;102474.41;;;33.10;11.52
25759;BME280;13604;52.496;13.456;2023-03-01T12:01:14;102479.13;;;33.41;11.64
25759;BME280;13604;52.496;13.456;2023-03-01T12:06:52;102465.03;;;31.27;11.95
25759;BME280;13604;52.496;13.456;2023-03-01T12:09:52;102457.53;;;32.06;12.07
25759;BME280;13604;52.496;13.456;2023-03-01T12:12:34;102462.25;;;32.90;11.24
25759;BME280;13604;52.496;13.456;2023-03-01T12:15:32;102456.56;;;32.59;11.06
25759;BME280;13604;52.496;13.456;2023-03-01T12:18:28;102452.06;;;33.03;11.42
25759;BME280;13604;52.496;13.456;2023-03-01T12:21:53;102452.81;;;32.68;11.12
25759;BME280;13604;52.496;13.456;2023-03-01T12:24:51;102442.59;;;31.87;11.42
25759;BME280;13604;52.496;13.456;2023-03-01T12:27:39;102439.19;;;32.27;11.38
25759;BME280;13604;52.496;13.456;2023-03-01T12:31:15;102436.19;;;32.88;10.62
25759;BME280;13604;52.496;13.456;2023-03-01T12:33:21;102425.06;;;32.16;10.97
25759;BME280;13604;52.496;13.456;2023-03-01T12:36:06;102423.91;;;32.29;11.35
25759;BME280;13604;52.496;13.456;2023-03-01T12:41:48;102410.63;;;33.06;10.81
25759;BME280;13604;52.496;13.456;2023-03-01T12:44:53;102420.56;;;33.44;10.68
25759;BME280;13604;52.496;13.456;2023-03-01T12:47:51;102407.06;;;32.63;10.98
25759;BME280;13604;52.496;13.456;2023-03-01T12:50:32;102407.09;;;32.60;11.29
25759;BME280;13604;52.496;13.456;2023-03-01T12:53:01;102393.19;;;31.33;11.65
25759;BME280;13604;52.496;13.456;2023-03-01T12:55:35;102392.63;;;31.11;11.86
25759;BME280;13604;52.496;13.456;2023-03-01T13:11:33;102387.75;;;29.92;12.40
25759;BME280;13604;52.496;13.456;2023-03-01T13:14:35;102380.00;;;29.53;12.35
25759;BME280;13604;52.496;13.456;2023-03-01T13:17:00;102372.94;;;29.43;12.45
25759;BME280;13604;52.496;13.456;2023-03-01T13:19:27;102372.47;;;30.00;12.32
25759;BME280;13604;52.496;13.456;2023-03-01T13:21:58;102381.13;;;30.25;12.03
25759;BME280;13604;52.496;13.456;2023-03-01T13:24:37;102378.69;;;30.80;12.36